sensor_id;sensor_type;location;lat;lon;timestamp;temperature;humidity
18085;DHT22;9169;44.492;11.372;2023-02-20T00:01:08;13.50;50.30
18085;DHT22;9169;44.492;11.372;2023-02-20T00:03:36;13.50;50.30
18085;DHT22;9169;44.492;11.372;2023-02-20T00:06:04;13.50;50.30
18085;DHT22;9169;44.492;11.372;2023-02-20T00:08:34;13.50;50.30
18085;DHT22;9169;44.492;11.372;2023-02-20T00:11:03;13.50;50.40
18085;DHT22;9169;44.492;11.372;2023-02-20T00:13:31;13.40;50.50
18085;DHT22;9169;44.492;11.372;2023-02-20T00:15:59;13.40;50.70
18085;DHT22;9169;44.492;11.372;2023-02-20T00:18:28;13.40;50.90
18085;DHT22;9169;44.492;11.372;2023-02-20T00:20:56;13.40;50.70
18085;DHT22;9169;44.492;11.372;2023-02-20T00:23:24;13.40;50.70
18085;DHT22;9169;44.492;11.372;2023-02-20T00:25:54;13.40;50.60
18085;DHT22;9169;44.492;11.372;2023-02-20T00:28:22;13.40;50.60
18085;DHT22;9169;44.492;11.372;2023-02-20T00:30:53;13.40;50.60
18085;DHT22;9169;44.492;11.372;2023-02-20T00:33:21;13.40;50.50
18085;DHT22;9169;44.492;11.372;2023-02-20T00:35:49;13.40;50.40
18085;DHT22;9169;44.492;11.372;2023-02-20T00:38:17;13.40;50.50
18085;DHT22;9169;44.492;11.372;2023-02-20T00:40:46;13.50;50.60
18085;DHT22;9169;44.492;11.372;2023-02-20T00:43:16;13.50;50.60
18085;DHT22;9169;44.492;11.372;2023-02-20T00:45:44;13.50;50.70
18085;DHT22;9169;44.492;11.372;2023-02-20T00:48:12;13.50;50.80
18085;DHT22;9169;44.492;11.372;2023-02-20T00:50:41;13.50;50.80
18085;DHT22;9169;44.492;11.372;2023-02-20T00:53:09;13.50;51.30
18085;DHT22;9169;44.492;11.372;2023-02-20T00:55:37;13.50;51.00
18085;DHT22;9169;44.492;11.372;2023-02-20T00:58:05;13.50;51.00
18085;DHT22;9169;44.492;11.372;2023-02-20T01:00:35;13.50;51.10
18085;DHT22;9169;44.492;11.372;2023-02-20T01:03:05;13.40;51.10
18085;DHT22;9169;44.492;11.372;2023-02-20T01:05:33;13.30;51.00
18085;DHT22;9169;44.492;11.372;2023-02-20T01:08:01;13.30;51.10
18085;DHT22;9169;44.492;11.372;2023-02-20T01:10:30;13.20;51.10
18085;DHT22;9169;44.492;11.372;2023-02-20T01:12:58;13.20;51.20
18085;DHT22;9169;44.492;11.372;2023-02-20T01:15:27;13.20;51.30
18085;DHT22;9169;44.492;11.372;2023-02-20T01:17:57;13.10;51.20
18085;DHT22;9169;44.492;11.372;2023-02-20T01:20:26;13.10;51.30
18085;DHT22;9169;44.492;11.372;2023-02-20T01:22:54;13.00;51.50
18085;DHT22;9169;44.492;11.372;2023-02-20T01:25:23;13.10;51.50
18085;DHT22;9169;44.492;11.372;2023-02-20T01:27:51;13.10;51.50
18085;DHT22;9169;44.492;11.372;2023-02-20T01:30:19;13.00;51.60
18085;DHT22;9169;44.492;11.372;2023-02-20T01:32:48;12.90;51.60
18085;DHT22;9169;44.492;11.372;2023-02-20T01:35:17;12.90;51.70
18085;DHT22;9169;44.492;11.372;2023-02-20T01:37:46;12.90;51.70
18085;DHT22;9169;44.492;11.372;2023-02-20T01:40:16;12.90;51.70
18085;DHT22;9169;44.492;11.372;2023-02-20T01:42:44;12.80;51.70
18085;DHT22;9169;44.492;11.372;2023-02-20T01:45:28;12.80;51.90
18085;DHT22;9169;44.492;11.372;2023-02-20T01:47:59;12.70;51.90
18085;DHT22;9169;44.492;11.372;2023-02-20T01:50:32;12.70;51.90
18085;DHT22;9169;44.492;11.372;2023-02-20T01:53:06;12.70;51.90
18085;DHT22;9169;44.492;11.372;2023-02-20T01:55:38;12.80;51.90
18085;DHT22;9169;44.492;11.372;2023-02-20T01:58:10;12.80;52.00
18085;DHT22;9169;44.492;11.372;2023-02-20T02:00:39;12.80;52.00
18085;DHT22;9169;44.492;11.372;2023-02-20T02:03:10;12.70;52.00
18085;DHT22;9169;44.492;11.372;2023-02-20T02:05:44;12.70;52.00
18085;DHT22;9169;44.492;11.372;2023-02-20T02:08:14;12.80;52.00
18085;DHT22;9169;44.492;11.372;2023-02-20T02:10:48;12.80;52.00
18085;DHT22;9169;44.492;11.372;2023-02-20T02:13:18;12.70;52.10
18085;DHT22;9169;44.492;11.372;2023-02-20T02:15:50;12.80;52.10
18085;DHT22;9169;44.492;11.372;2023-02-20T02:18:31;12.80;52.30
18085;DHT22;9169;44.492;11.372;2023-02-20T02:21:16;12.80;52.40
18085;DHT22;9169;44.492;11.372;2023-02-20T02:27:26;12.80;52.60
18085;DHT22;9169;44.492;11.372;2023-02-20T02:33:39;12.90;52.20
18085;DHT22;9169;44.492;11.372;2023-02-20T02:36:37;12.90;52.20
18085;DHT22;9169;44.492;11.372;2023-02-20T02:39:12;12.90;52.10
18085;DHT22;9169;44.492;11.372;2023-02-20T02:41:48;12.90;52.10
18085;DHT22;9169;44.492;11.372;2023-02-20T02:44:23;13.00;52.10
18085;DHT22;9169;44.492;11.372;2023-02-20T02:46:56;13.00;52.20
18085;DHT22;9169;44.492;11.372;2023-02-20T02:49:30;13.00;52.20
18085;DHT22;9169;44.492;11.372;2023-02-20T02:52:03;13.00;52.20
18085;DHT22;9169;44.492;11.372;2023-02-20T02:54:32;13.00;52.10
18085;DHT22;9169;44.492;11.372;2023-02-20T02:57:22;13.10;52.10
18085;DHT22;9169;44.492;11.372;2023-02-20T02:59:53;13.10;52.30
18085;DHT22;9169;44.492;11.372;2023-02-20T03:02:24;13.10;52.20
18085;DHT22;9169;44.492;11.372;2023-02-20T03:04:57;13.10;52.30
18085;DHT22;9169;44.492;11.372;2023-02-20T03:07:30;13.00;52.40
18085;DHT22;9169;44.492;11.372;2023-02-20T03:10:02;13.00;52.60
18085;DHT22;9169;44.492;11.372;2023-02-20T03:12:36;13.10;52.60
18085;DHT22;9169;44.492;11.372;2023-02-20T03:15:09;13.00;52.50
18085;DHT22;9169;44.492;11.372;2023-02-20T03:18:15;13.00;52.60
18085;DHT22;9169;44.492;11.372;2023-02-20T03:20:48;13.00;52.70
18085;DHT22;9169;44.492;11.372;2023-02-20T03:23:23;12.90;52.70
18085;DHT22;9169;44.492;11.372;2023-02-20T03:25:55;12.90;52.80
18085;DHT22;9169;44.492;11.372;2023-02-20T03:28:29;12.90;53.00
18085;DHT22;9169;44.492;11.372;2023-02-20T03:31:04;12.90;53.00
18085;DHT22;9169;44.492;11.372;2023-02-20T03:33:37;12.90;53.00
18085;DHT22;9169;44.492;11.372;2023-02-20T03:36:29;12.90;53.00
18085;DHT22;9169;44.492;11.372;2023-02-20T03:39:20;12.90;53.20
18085;DHT22;9169;44.492;11.372;2023-02-20T03:42:10;13.00;53.10
18085;DHT22;9169;44.492;11.372;2023-02-20T03:45:04;13.00;52.90
18085;DHT22;9169;44.492;11.372;2023-02-20T03:47:36;13.10;53.20
18085;DHT22;9169;44.492;11.372;2023-02-20T03:50:07;13.10;53.20
18085;DHT22;9169;44.492;11.372;2023-02-20T03:52:36;13.10;53.30
18085;DHT22;9169;44.492;11.372;2023-02-20T03:55:08;13.10;53.40
18085;DHT22;9169;44.492;11.372;2023-02-20T03:57:41;13.10;53.20
18085;DHT22;9169;44.492;11.372;2023-02-20T04:00:15;13.10;53.30
18085;DHT22;9169;44.492;11.372;2023-02-20T04:02:54;13.20;53.30
18085;DHT22;9169;44.492;11.372;2023-02-20T04:05:30;13.20;53.30
18085;DHT22;9169;44.492;11.372;2023-02-20T04:08:04;13.20;53.30
18085;DHT22;9169;44.492;11.372;2023-02-20T04:10:40;13.20;53.30
18085;DHT22;9169;44.492;11.372;2023-02-20T04:13:11;13.30;53.50
18085;DHT22;9169;44.492;11.372;2023-02-20T04:15:45;13.30;53.50
18085;DHT22;9169;44.492;11.372;2023-02-20T04:18:16;13.30;53.60
18085;DHT22;9169;44.492;11.372;2023-02-20T04:20:48;13.30;53.60
18085;DHT22;9169;44.492;11.372;2023-02-20T04:23:35;13.20;53.50
18085;DHT22;9169;44.492;11.372;2023-02-20T04:26:08;13.20;53.50
18085;DHT22;9169;44.492;11.372;2023-02-20T04:28:40;13.20;53.50
18085;DHT22;9169;44.492;11.372;2023-02-20T04:31:10;13.20;53.40
18085;DHT22;9169;44.492;11.372;2023-02-20T04:33:40;13.30;53.50
18085;DHT22;9169;44.492;11.372;2023-02-20T04:36:16;13.20;53.40
18085;DHT22;9169;44.492;11.372;2023-02-20T04:38:44;13.20;53.30
18085;DHT22;9169;44.492;11.372;2023-02-20T04:41:17;13.30;53.40
18085;DHT22;9169;44.492;11.372;2023-02-20T04:43:46;13.30;53.50
18085;DHT22;9169;44.492;11.372;2023-02-20T04:46:15;13.20;53.40
18085;DHT22;9169;44.492;11.372;2023-02-20T04:48:44;13.30;53.50
18085;DHT22;9169;44.492;11.372;2023-02-20T04:51:14;13.30;53.40
18085;DHT22;9169;44.492;11.372;2023-02-20T04:53:42;13.30;53.40
18085;DHT22;9169;44.492;11.372;2023-02-20T04:56:10;13.30;53.40
18085;DHT22;9169;44.492;11.372;2023-02-20T04:58:45;13.30;53.60
18085;DHT22;9169;44.492;11.372;2023-02-20T05:01:19;13.30;53.80
18085;DHT22;9169;44.492;11.372;2023-02-20T05:03:47;13.30;53.60
18085;DHT22;9169;44.492;11.372;2023-02-20T05:06:16;13.30;53.60
18085;DHT22;9169;44.492;11.372;2023-02-20T05:08:44;13.30;53.70
18085;DHT22;9169;44.492;11.372;2023-02-20T05:11:14;13.40;53.70
18085;DHT22;9169;44.492;11.372;2023-02-20T05:13:44;13.40;53.50
18085;DHT22;9169;44.492;11.372;2023-02-20T05:16:12;13.40;53.70
18085;DHT22;9169;44.492;11.372;2023-02-20T05:18:41;13.40;53.60
18085;DHT22;9169;44.492;11.372;2023-02-20T05:21:12;13.40;53.70
18085;DHT22;9169;44.492;11.372;2023-02-20T05:23:58;13.40;53.80
18085;DHT22;9169;44.492;11.372;2023-02-20T05:26:27;13.40;53.70
18085;DHT22;9169;44.492;11.372;2023-02-20T05:28:56;13.40;53.80
18085;DHT22;9169;44.492;11.372;2023-02-20T05:31:25;13.40;54.00
18085;DHT22;9169;44.492;11.372;2023-02-20T05:33:53;13.40;53.90
18085;DHT22;9169;44.492;11.372;2023-02-20T05:36:21;13.40;53.80
18085;DHT22;9169;44.492;11.372;2023-02-20T05:38:50;13.40;54.00
18085;DHT22;9169;44.492;11.372;2023-02-20T05:41:18;13.40;54.10
18085;DHT22;9169;44.492;11.372;2023-02-20T05:43:46;13.40;54.20
18085;DHT22;9169;44.492;11.372;2023-02-20T05:46:16;13.40;54.30
18085;DHT22;9169;44.492;11.372;2023-02-20T05:48:47;13.40;54.50
18085;DHT22;9169;44.492;11.372;2023-02-20T05:51:21;13.40;54.50
18085;DHT22;9169;44.492;11.372;2023-02-20T05:53:49;13.40;54.60
18085;DHT22;9169;44.492;11.372;2023-02-20T05:56:18;13.40;54.70
18085;DHT22;9169;44.492;11.372;2023-02-20T05:58:47;13.40;54.80
18085;DHT22;9169;44.492;11.372;2023-02-20T06:01:18;13.40;54.90
18085;DHT22;9169;44.492;11.372;2023-02-20T06:03:46;13.40;54.80
18085;DHT22;9169;44.492;11.372;2023-02-20T06:06:15;13.50;55.00
18085;DHT22;9169;44.492;11.372;2023-02-20T06:08:44;13.40;55.00
18085;DHT22;9169;44.492;11.372;2023-02-20T06:11:13;13.40;55.10
18085;DHT22;9169;44.492;11.372;2023-02-20T06:13:43;13.40;55.20
18085;DHT22;9169;44.492;11.372;2023-02-20T06:16:12;13.40;55.20
18085;DHT22;9169;44.492;11.372;2023-02-20T06:18:42;13.40;55.20
18085;DHT22;9169;44.492;11.372;2023-02-20T06:21:11;13.40;55.20
18085;DHT22;9169;44.492;11.372;2023-02-20T06:23:41;13.40;55.30
18085;DHT22;9169;44.492;11.372;2023-02-20T06:26:12;13.40;55.30
18085;DHT22;9169;44.492;11.372;2023-02-20T06:28:41;13.30;55.30
18085;DHT22;9169;44.492;11.372;2023-02-20T06:31:10;13.40;55.30
18085;DHT22;9169;44.492;11.372;2023-02-20T06:33:39;13.30;55.30
18085;DHT22;9169;44.492;11.372;2023-02-20T06:36:18;13.40;55.30
18085;DHT22;9169;44.492;11.372;2023-02-20T06:38:47;13.40;55.40
18085;DHT22;9169;44.492;11.372;2023-02-20T06:41:15;13.40;55.40
18085;DHT22;9169;44.492;11.372;2023-02-20T06:43:43;13.40;55.50
18085;DHT22;9169;44.492;11.372;2023-02-20T06:46:12;13.50;55.50
18085;DHT22;9169;44.492;11.372;2023-02-20T06:48:44;13.50;55.50
18085;DHT22;9169;44.492;11.372;2023-02-20T06:51:18;13.50;55.40
18085;DHT22;9169;44.492;11.372;2023-02-20T06:53:47;13.50;55.40
18085;DHT22;9169;44.492;11.372;2023-02-20T06:56:17;13.60;55.40
18085;DHT22;9169;44.492;11.372;2023-02-20T06:58:47;13.60;55.60
18085;DHT22;9169;44.492;11.372;2023-02-20T07:01:16;13.60;55.60
18085;DHT22;9169;44.492;11.372;2023-02-20T07:03:45;13.60;55.70
18085;DHT22;9169;44.492;11.372;2023-02-20T07:06:16;13.60;55.80
18085;DHT22;9169;44.492;11.372;2023-02-20T07:08:45;13.60;55.90
18085;DHT22;9169;44.492;11.372;2023-02-20T07:11:14;13.60;55.80
18085;DHT22;9169;44.492;11.372;2023-02-20T07:13:43;13.60;55.80
18085;DHT22;9169;44.492;11.372;2023-02-20T07:16:12;13.70;55.90
18085;DHT22;9169;44.492;11.372;2023-02-20T07:18:41;13.70;55.90
18085;DHT22;9169;44.492;11.372;2023-02-20T07:21:09;13.80;55.90
18085;DHT22;9169;44.492;11.372;2023-02-20T07:23:39;13.80;55.80
18085;DHT22;9169;44.492;11.372;2023-02-20T07:26:16;13.90;55.90
18085;DHT22;9169;44.492;11.372;2023-02-20T07:28:45;13.90;55.90
18085;DHT22;9169;44.492;11.372;2023-02-20T07:31:13;14.00;55.90
18085;DHT22;9169;44.492;11.372;2023-02-20T07:33:42;14.00;55.90
18085;DHT22;9169;44.492;11.372;2023-02-20T07:36:11;14.00;55.90
18085;DHT22;9169;44.492;11.372;2023-02-20T07:38:42;14.00;56.00
18085;DHT22;9169;44.492;11.372;2023-02-20T07:41:14;14.00;56.10
18085;DHT22;9169;44.492;11.372;2023-02-20T07:43:43;14.00;56.20
18085;DHT22;9169;44.492;11.372;2023-02-20T07:46:12;14.10;56.30
18085;DHT22;9169;44.492;11.372;2023-02-20T07:48:41;14.10;56.30
18085;DHT22;9169;44.492;11.372;2023-02-20T07:51:09;14.20;56.30
18085;DHT22;9169;44.492;11.372;2023-02-20T07:53:38;14.20;56.30
18085;DHT22;9169;44.492;11.372;2023-02-20T07:56:07;14.20;56.30
18085;DHT22;9169;44.492;11.372;2023-02-20T07:58:36;14.20;56.20
18085;DHT22;9169;44.492;11.372;2023-02-20T08:01:04;14.20;56.10
18085;DHT22;9169;44.492;11.372;2023-02-20T08:03:32;14.30;56.10
18085;DHT22;9169;44.492;11.372;2023-02-20T08:06:01;14.30;56.10
18085;DHT22;9169;44.492;11.372;2023-02-20T08:08:29;14.30;56.10
18085;DHT22;9169;44.492;11.372;2023-02-20T08:10:58;14.40;56.20
18085;DHT22;9169;44.492;11.372;2023-02-20T08:13:39;14.40;56.30
18085;DHT22;9169;44.492;11.372;2023-02-20T08:16:09;14.50;56.40
18085;DHT22;9169;44.492;11.372;2023-02-20T08:18:38;14.50;56.40
18085;DHT22;9169;44.492;11.372;2023-02-20T08:21:06;14.60;56.80
18085;DHT22;9169;44.492;11.372;2023-02-20T08:23:35;14.70;56.90
18085;DHT22;9169;44.492;11.372;2023-02-20T08:26:04;14.90;57.70
18085;DHT22;9169;44.492;11.372;2023-02-20T08:28:32;15.10;58.20
18085;DHT22;9169;44.492;11.372;2023-02-20T08:31:03;15.30;58.10
18085;DHT22;9169;44.492;11.372;2023-02-20T08:33:31;15.60;58.20
18085;DHT22;9169;44.492;11.372;2023-02-20T08:35:59;15.80;57.90
18085;DHT22;9169;44.492;11.372;2023-02-20T08:38:29;16.00;57.20
18085;DHT22;9169;44.492;11.372;2023-02-20T08:40:58;16.10;57.30
18085;DHT22;9169;44.492;11.372;2023-02-20T08:43:26;16.30;57.30
18085;DHT22;9169;44.492;11.372;2023-02-20T08:45:55;16.40;57.10
18085;DHT22;9169;44.492;11.372;2023-02-20T08:48:24;16.60;56.90
18085;DHT22;9169;44.492;11.372;2023-02-20T08:50:53;16.70;56.70
18085;DHT22;9169;44.492;11.372;2023-02-20T08:53:21;16.90;56.40
18085;DHT22;9169;44.492;11.372;2023-02-20T08:55:49;17.00;56.50
18085;DHT22;9169;44.492;11.372;2023-02-20T08:58:18;17.20;56.50
18085;DHT22;9169;44.492;11.372;2023-02-20T09:00:47;17.50;56.40
18085;DHT22;9169;44.492;11.372;2023-02-20T09:03:16;17.70;56.10
18085;DHT22;9169;44.492;11.372;2023-02-20T09:05:46;17.90;55.20
18085;DHT22;9169;44.492;11.372;2023-02-20T09:08:15;17.90;54.30
18085;DHT22;9169;44.492;11.372;2023-02-20T09:10:43;17.90;54.00
18085;DHT22;9169;44.492;11.372;2023-02-20T09:13:12;17.90;53.70
18085;DHT22;9169;44.492;11.372;2023-02-20T09:15:40;17.90;53.30
18085;DHT22;9169;44.492;11.372;2023-02-20T09:18:11;17.90;53.00
18085;DHT22;9169;44.492;11.372;2023-02-20T09:20:40;17.80;52.80
18085;DHT22;9169;44.492;11.372;2023-02-20T09:23:10;17.70;52.70
18085;DHT22;9169;44.492;11.372;2023-02-20T09:25:38;17.70;52.80
18085;DHT22;9169;44.492;11.372;2023-02-20T09:28:07;17.70;52.80
18085;DHT22;9169;44.492;11.372;2023-02-20T09:30:36;17.60;52.60
18085;DHT22;9169;44.492;11.372;2023-02-20T09:33:04;17.50;52.60
18085;DHT22;9169;44.492;11.372;2023-02-20T09:35:32;17.50;52.80
18085;DHT22;9169;44.492;11.372;2023-02-20T09:38:01;17.50;52.90
18085;DHT22;9169;44.492;11.372;2023-02-20T09:40:31;17.60;53.00
18085;DHT22;9169;44.492;11.372;2023-02-20T09:43:08;17.60;53.30
18085;DHT22;9169;44.492;11.372;2023-02-20T09:45:46;17.70;53.40
18085;DHT22;9169;44.492;11.372;2023-02-20T09:48:22;17.80;53.20
18085;DHT22;9169;44.492;11.372;2023-02-20T09:50:59;18.00;53.00
18085;DHT22;9169;44.492;11.372;2023-02-20T09:53:32;18.00;52.90
18085;DHT22;9169;44.492;11.372;2023-02-20T09:56:06;18.00;52.60
18085;DHT22;9169;44.492;11.372;2023-02-20T09:58:42;18.10;52.60
18085;DHT22;9169;44.492;11.372;2023-02-20T10:01:14;18.10;52.60
18085;DHT22;9169;44.492;11.372;2023-02-20T10:03:52;18.10;52.40
18085;DHT22;9169;44.492;11.372;2023-02-20T10:06:23;18.10;52.10
18085;DHT22;9169;44.492;11.372;2023-02-20T10:08:52;18.10;52.10
18085;DHT22;9169;44.492;11.372;2023-02-20T10:11:44;18.10;52.10
18085;DHT22;9169;44.492;11.372;2023-02-20T10:14:28;18.10;52.10
18085;DHT22;9169;44.492;11.372;2023-02-20T10:17:06;18.20;52.10
18085;DHT22;9169;44.492;11.372;2023-02-20T10:19:43;18.20;51.90
18085;DHT22;9169;44.492;11.372;2023-02-20T10:22:19;18.10;51.60
18085;DHT22;9169;44.492;11.372;2023-02-20T10:25:02;18.10;51.60
18085;DHT22;9169;44.492;11.372;2023-02-20T10:27:45;18.10;51.60
18085;DHT22;9169;44.492;11.372;2023-02-20T10:30:22;18.20;51.70
18085;DHT22;9169;44.492;11.372;2023-02-20T10:32:56;18.20;51.60
18085;DHT22;9169;44.492;11.372;2023-02-20T10:35:33;18.20;51.40
18085;DHT22;9169;44.492;11.372;2023-02-20T10:38:07;18.10;51.30
18085;DHT22;9169;44.492;11.372;2023-02-20T10:40:39;18.10;51.40
18085;DHT22;9169;44.492;11.372;2023-02-20T10:43:15;18.20;51.60
18085;DHT22;9169;44.492;11.372;2023-02-20T10:45:53;18.20;51.60
18085;DHT22;9169;44.492;11.372;2023-02-20T10:48:27;18.20;51.60
18085;DHT22;9169;44.492;11.372;2023-02-20T10:51:02;18.30;51.60
18085;DHT22;9169;44.492;11.372;2023-02-20T10:53:37;18.40;51.60
18085;DHT22;9169;44.492;11.372;2023-02-20T10:56:10;18.40;51.40
18085;DHT22;9169;44.492;11.372;2023-02-20T10:58:45;18.50;51.50
18085;DHT22;9169;44.492;11.372;2023-02-20T11:01:18;18.50;51.40
18085;DHT22;9169;44.492;11.372;2023-02-20T11:03:51;18.60;51.30
18085;DHT22;9169;44.492;11.372;2023-02-20T11:06:24;18.60;51.00
18085;DHT22;9169;44.492;11.372;2023-02-20T11:08:53;18.60;50.80
18085;DHT22;9169;44.492;11.372;2023-02-20T11:11:25;18.60;50.70
18085;DHT22;9169;44.492;11.372;2023-02-20T11:14:04;18.60;50.80
18085;DHT22;9169;44.492;11.372;2023-02-20T11:16:41;18.50;50.70
18085;DHT22;9169;44.492;11.372;2023-02-20T11:19:16;18.40;50.70
18085;DHT22;9169;44.492;11.372;2023-02-20T11:21:47;18.40;50.90
18085;DHT22;9169;44.492;11.372;2023-02-20T11:24:31;18.40;50.90
18085;DHT22;9169;44.492;11.372;2023-02-20T11:27:04;18.40;51.00
18085;DHT22;9169;44.492;11.372;2023-02-20T11:29:37;18.30;50.60
18085;DHT22;9169;44.492;11.372;2023-02-20T11:32:29;18.30;50.70
18085;DHT22;9169;44.492;11.372;2023-02-20T11:35:21;18.30;50.80
18085;DHT22;9169;44.492;11.372;2023-02-20T11:38:18;18.40;50.70
18085;DHT22;9169;44.492;11.372;2023-02-20T11:44:24;18.50;50.90
18085;DHT22;9169;44.492;11.372;2023-02-20T11:47:26;18.60;50.70
18085;DHT22;9169;44.492;11.372;2023-02-20T11:50:23;18.60;50.40
18085;DHT22;9169;44.492;11.372;2023-02-20T11:52:58;18.70;50.50
18085;DHT22;9169;44.492;11.372;2023-02-20T11:55:26;18.80;50.50
18085;DHT22;9169;44.492;11.372;2023-02-20T11:57:56;18.90;50.50
18085;DHT22;9169;44.492;11.372;2023-02-20T12:00:26;18.90;50.30
18085;DHT22;9169;44.492;11.372;2023-02-20T12:03:05;18.90;50.30
18085;DHT22;9169;44.492;11.372;2023-02-20T12:05:39;18.90;50.20
18085;DHT22;9169;44.492;11.372;2023-02-20T12:08:40;18.90;50.00
18085;DHT22;9169;44.492;11.372;2023-02-20T12:11:11;18.90;50.20
18085;DHT22;9169;44.492;11.372;2023-02-20T12:13:42;18.90;50.30
18085;DHT22;9169;44.492;11.372;2023-02-20T12:16:30;19.00;50.20
18085;DHT22;9169;44.492;11.372;2023-02-20T12:19:10;19.00;50.20
18085;DHT22;9169;44.492;11.372;2023-02-20T12:21:56;19.00;50.10
18085;DHT22;9169;44.492;11.372;2023-02-20T12:27:45;19.00;50.20
18085;DHT22;9169;44.492;11.372;2023-02-20T12:30:26;19.10;50.30
18085;DHT22;9169;44.492;11.372;2023-02-20T12:33:04;19.20;50.20
18085;DHT22;9169;44.492;11.372;2023-02-20T12:35:43;19.20;50.20
18085;DHT22;9169;44.492;11.372;2023-02-20T12:38:31;19.30;50.10
18085;DHT22;9169;44.492;11.372;2023-02-20T12:41:21;19.40;49.80
18085;DHT22;9169;44.492;11.372;2023-02-20T12:44:09;19.40;49.70
18085;DHT22;9169;44.492;11.372;2023-02-20T12:46:49;19.30;49.60
18085;DHT22;9169;44.492;11.372;2023-02-20T12:49:31;19.30;50.00
18085;DHT22;9169;44.492;11.372;2023-02-20T12:52:17;19.30;49.20
18085;DHT22;9169;44.492;11.372;2023-02-20T12:54:52;19.30;49.20
18085;DHT22;9169;44.492;11.372;2023-02-20T12:57:28;19.30;49.20
18085;DHT22;9169;44.492;11.372;2023-02-20T13:00:06;19.40;49.40
18085;DHT22;9169;44.492;11.372;2023-02-20T13:02:39;19.40;49.10
18085;DHT22;9169;44.492;11.372;2023-02-20T13:05:12;19.50;49.30
18085;DHT22;9169;44.492;11.372;2023-02-20T13:07:49;19.50;49.50
18085;DHT22;9169;44.492;11.372;2023-02-20T13:10:22;19.50;49.50
18085;DHT22;9169;44.492;11.372;2023-02-20T13:12:52;19.70;51.20
18085;DHT22;9169;44.492;11.372;2023-02-20T13:15:32;20.10;52.50
18085;DHT22;9169;44.492;11.372;2023-02-20T13:18:09;20.70;53.10
18085;DHT22;9169;44.492;11.372;2023-02-20T13:20:45;21.40;53.20
18085;DHT22;9169;44.492;11.372;2023-02-20T13:23:33;22.10;53.00
18085;DHT22;9169;44.492;11.372;2023-02-20T13:26:05;22.60;50.00
18085;DHT22;9169;44.492;11.372;2023-02-20T13:28:51;22.80;49.50
18085;DHT22;9169;44.492;11.372;2023-02-20T13:31:21;23.00;49.90
18085;DHT22;9169;44.492;11.372;2023-02-20T13:34:24;23.30;49.90
18085;DHT22;9169;44.492;11.372;2023-02-20T13:36:42;23.70;49.70
18085;DHT22;9169;44.492;11.372;2023-02-20T13:42:32;24.70;48.40
18085;DHT22;9169;44.492;11.372;2023-02-20T13:45:01;25.30;47.60
18085;DHT22;9169;44.492;11.372;2023-02-20T13:47:34;25.90;47.50
18085;DHT22;9169;44.492;11.372;2023-02-20T13:50:27;26.20;45.00
18085;DHT22;9169;44.492;11.372;2023-02-20T13:53:01;26.20;43.40
18085;DHT22;9169;44.492;11.372;2023-02-20T13:55:30;26.20;43.30
18085;DHT22;9169;44.492;11.372;2023-02-20T13:58:04;26.30;43.20
18085;DHT22;9169;44.492;11.372;2023-02-20T14:00:43;26.50;43.10
18085;DHT22;9169;44.492;11.372;2023-02-20T14:03:19;26.80;43.40
18085;DHT22;9169;44.492;11.372;2023-02-20T14:06:01;27.10;42.70
18085;DHT22;9169;44.492;11.372;2023-02-20T14:08:31;27.30;42.90
18085;DHT22;9169;44.492;11.372;2023-02-20T14:11:04;27.50;42.60
18085;DHT22;9169;44.492;11.372;2023-02-20T14:13:34;27.70;42.10
18085;DHT22;9169;44.492;11.372;2023-02-20T14:16:23;28.00;41.90
18085;DHT22;9169;44.492;11.372;2023-02-20T14:18:56;28.10;39.90
18085;DHT22;9169;44.492;11.372;2023-02-20T14:21:24;28.30;41.10
18085;DHT22;9169;44.492;11.372;2023-02-20T14:23:55;28.60;40.60
18085;DHT22;9169;44.492;11.372;2023-02-20T14:26:25;28.50;38.50
18085;DHT22;9169;44.492;11.372;2023-02-20T14:28:56;28.50;38.60
18085;DHT22;9169;44.492;11.372;2023-02-20T14:31:26;28.40;38.50
18085;DHT22;9169;44.492;11.372;2023-02-20T14:33:57;28.30;38.60
18085;DHT22;9169;44.492;11.372;2023-02-20T14:36:46;28.20;37.80
18085;DHT22;9169;44.492;11.372;2023-02-20T14:39:31;27.90;37.10
18085;DHT22;9169;44.492;11.372;2023-02-20T14:42:03;27.60;37.30
18085;DHT22;9169;44.492;11.372;2023-02-20T14:44:32;27.30;37.60
18085;DHT22;9169;44.492;11.372;2023-02-20T14:47:06;27.10;37.80
18085;DHT22;9169;44.492;11.372;2023-02-20T14:49:36;26.90;37.70
18085;DHT22;9169;44.492;11.372;2023-02-20T14:52:13;26.80;38.00
18085;DHT22;9169;44.492;11.372;2023-02-20T14:54:54;26.70;37.70
18085;DHT22;9169;44.492;11.372;2023-02-20T14:57:23;26.40;37.70
18085;DHT22;9169;44.492;11.372;2023-02-20T15:00:07;26.10;37.80
18085;DHT22;9169;44.492;11.372;2023-02-20T15:02:40;25.80;37.70
18085;DHT22;9169;44.492;11.372;2023-02-20T15:05:12;25.50;37.70
18085;DHT22;9169;44.492;11.372;2023-02-20T15:07:44;25.20;37.90
18085;DHT22;9169;44.492;11.372;2023-02-20T15:10:34;24.90;38.10
18085;DHT22;9169;44.492;11.372;2023-02-20T15:13:08;24.60;38.20
18085;DHT22;9169;44.492;11.372;2023-02-20T15:15:40;24.40;38.50
18085;DHT22;9169;44.492;11.372;2023-02-20T15:18:11;24.20;38.70
18085;DHT22;9169;44.492;11.372;2023-02-20T15:20:45;24.10;38.80
18085;DHT22;9169;44.492;11.372;2023-02-20T15:23:24;23.90;38.90
18085;DHT22;9169;44.492;11.372;2023-02-20T15:25:56;23.70;39.10
18085;DHT22;9169;44.492;11.372;2023-02-20T15:28:27;23.60;39.10
18085;DHT22;9169;44.492;11.372;2023-02-20T15:31:05;23.40;39.30
18085;DHT22;9169;44.492;11.372;2023-02-20T15:33:46;23.20;39.30
18085;DHT22;9169;44.492;11.372;2023-02-20T15:36:19;22.90;39.30
18085;DHT22;9169;44.492;11.372;2023-02-20T15:38:50;22.80;39.50
18085;DHT22;9169;44.492;11.372;2023-02-20T15:41:22;22.60;39.60
18085;DHT22;9169;44.492;11.372;2023-02-20T15:43:51;22.50;39.70
18085;DHT22;9169;44.492;11.372;2023-02-20T15:46:20;22.30;39.80
18085;DHT22;9169;44.492;11.372;2023-02-20T15:48:48;22.20;39.90
18085;DHT22;9169;44.492;11.372;2023-02-20T15:51:19;22.00;39.90
18085;DHT22;9169;44.492;11.372;2023-02-20T15:53:49;21.80;40.10
18085;DHT22;9169;44.492;11.372;2023-02-20T15:56:18;21.60;40.10
18085;DHT22;9169;44.492;11.372;2023-02-20T15:58:48;21.50;40.30
18085;DHT22;9169;44.492;11.372;2023-02-20T16:01:17;21.40;40.40
18085;DHT22;9169;44.492;11.372;2023-02-20T16:03:45;21.30;40.40
18085;DHT22;9169;44.492;11.372;2023-02-20T16:06:20;21.20;40.50
18085;DHT22;9169;44.492;11.372;2023-02-20T16:09:07;21.00;40.50
18085;DHT22;9169;44.492;11.372;2023-02-20T16:11:38;20.90;40.70
18085;DHT22;9169;44.492;11.372;2023-02-20T16:14:09;20.70;40.70
18085;DHT22;9169;44.492;11.372;2023-02-20T16:16:41;20.60;40.80
18085;DHT22;9169;44.492;11.372;2023-02-20T16:19:13;20.50;41.00
18085;DHT22;9169;44.492;11.372;2023-02-20T16:21:42;20.40;41.10
18085;DHT22;9169;44.492;11.372;2023-02-20T16:24:23;20.30;41.20